Terminal Aerodrome Forecast
Issued by NWS Mt. Holly, NJ

Home | Current Version | Previous Version | Text Only | Print | Product List | Glossary On
Versions: 1 2 3 4 5 6 7 8 9 10 11 12 13 14 15 16 17 18 19 20 21 22
000
FTUS41 KPHI 190713 AAA
TAFACY
TAF AMD
KACY 190713Z 1907/2006 22016G28KT 6SM -TSRA OVC050CB WS020/22045KT
     FM190900 23017G32KT 6SM -SHRA OVC050 WS020/22045KT
     FM191300 27018G38KT P6SM BKN050
     FM191500 29020G39KT P6SM SCT050
     FM192100 29014G26KT P6SM SKC
     FM200300 29012KT P6SM SKC=

USA.gov is the U.S. government's official web portal to all federal, state and local government web resources and services.